Time;durP1;ratioP1;P1;durP2;ratioP2;P2;SDS_P1;SDS_P2;PMS_P1;PMS_P2;Temp;Humidity;BMP_temperature;BMP_pressure;BME280_temperature;BME280_humidity;BME280_pressure;Samples;Min_cycle;Max_cycle;Signal;HPM_P1;HPM_P2
2022/12/25 00:00:31;;;;;;;13.17;8.90;;;7.20;99.90;;;;;;4970555;28;20189;-66
2022/12/25 00:02:57;;;;;;;14.27;8.73;;;7.30;99.90;;;;;;4970866;28;20177;-66
2022/12/25 00:05:22;;;;;;;9.90;9.07;;;7.30;99.90;;;;;;4970967;28;20197;-66
2022/12/25 00:07:48;;;;;;;10.27;8.37;;;7.40;99.90;;;;;;4970527;28;20544;-66
2022/12/25 00:10:14;;;;;;;12.03;8.30;;;7.50;99.90;;;;;;5014125;28;20187;-66
2022/12/25 00:12:39;;;;;;;9.57;8.57;;;7.50;99.90;;;;;;5051778;28;20638;-66
2022/12/25 00:15:05;;;;;;;8.63;7.83;;;7.60;99.90;;;;;;5016239;28;20284;-66
2022/12/25 00:17:31;;;;;;;9.63;8.03;;;7.60;99.90;;;;;;4970559;28;20173;-66
2022/12/25 00:19:56;;;;;;;22.53;8.97;;;7.60;99.90;;;;;;4970200;28;20228;-66
2022/12/25 00:22:22;;;;;;;9.47;8.57;;;7.60;99.90;;;;;;4970775;28;20192;-65
2022/12/25 00:24:48;;;;;;;12.57;10.20;;;7.60;99.90;;;;;;4970181;28;20197;-66
2022/12/25 00:27:14;;;;;;;14.37;8.53;;;7.60;99.90;;;;;;4970511;28;20261;-65
2022/12/25 00:29:39;;;;;;;10.20;8.77;;;7.70;99.90;;;;;;4969924;28;20189;-65
2022/12/25 00:32:05;;;;;;;9.23;7.90;;;7.70;99.90;;;;;;4970541;28;20255;-65
2022/12/25 00:34:31;;;;;;;12.17;8.30;;;7.70;99.90;;;;;;4970229;28;20216;-66
2022/12/25 00:36:56;;;;;;;9.67;7.63;;;7.70;99.90;;;;;;4970090;28;20248;-66
2022/12/25 00:39:22;;;;;;;13.57;8.03;;;7.80;99.90;;;;;;4970057;28;20261;-66
2022/12/25 00:44:32;;;;;;;21.60;7.93;;;7.80;99.90;;;;;;4969921;28;20830;-66
2022/12/25 00:46:57;;;;;;;17.87;8.47;;;7.90;99.90;;;;;;4970085;28;20185;-66
2022/12/25 00:49:23;;;;;;;11.67;7.73;;;7.90;99.90;;;;;;4970279;28;20227;-66
2022/12/25 00:51:50;;;;;;;9.00;8.30;;;8.00;99.90;;;;;;4969835;28;20209;-65
2022/12/25 00:54:15;;;;;;;8.43;7.47;;;8.00;99.90;;;;;;4969935;28;20208;-66
2022/12/25 00:56:41;;;;;;;8.53;7.77;;;8.10;99.90;;;;;;4969754;28;20556;-66
2022/12/25 00:59:07;;;;;;;13.03;7.23;;;8.10;99.90;;;;;;4969253;28;20212;-66
2022/12/25 01:01:33;;;;;;;7.67;6.67;;;8.10;99.90;;;;;;4970092;28;20177;-66
2022/12/25 01:03:59;;;;;;;7.87;7.10;;;8.10;99.90;;;;;;4969842;28;20197;-66
2022/12/25 01:06:25;;;;;;;11.07;6.80;;;8.20;99.90;;;;;;4969362;28;20213;-66
2022/12/25 01:11:35;;;;;;;8.43;7.60;;;8.20;99.90;;;;;;4972673;28;20224;-66
2022/12/25 01:14:00;;;;;;;7.37;6.67;;;8.20;99.90;;;;;;5055759;28;20194;-66
2022/12/25 01:16:27;;;;;;;7.63;6.97;;;8.20;99.90;;;;;;5055570;28;20189;-66
2022/12/25 01:18:52;;;;;;;7.63;6.93;;;8.20;99.90;;;;;;5055306;28;20179;-66
2022/12/25 01:21:20;;;;;;;10.07;8.10;;;8.20;99.90;;;;;;5055178;28;20545;-65
2022/12/25 01:23:45;;;;;;;9.00;6.27;;;8.20;99.90;;;;;;5055120;28;20190;-65
2022/12/25 01:26:12;;;;;;;15.77;7.83;;;8.20;99.90;;;;;;5055354;28;20561;-66
2022/12/25 01:28:38;;;;;;;8.33;6.87;;;8.20;99.90;;;;;;5054964;28;20202;-66
2022/12/25 01:31:07;;;;;;;10.10;7.60;;;8.30;99.90;;;;;;5070136;28;20225;-66
2022/12/25 01:33:32;;;;;;;17.57;7.70;;;8.30;99.90;;;;;;5054889;28;20163;-66
2022/12/25 01:35:58;;;;;;;12.77;8.50;;;8.20;99.90;;;;;;5055030;28;20239;-65
2022/12/25 01:38:23;;;;;;;10.17;7.03;;;8.30;99.90;;;;;;5054917;28;20179;-66
2022/12/25 01:40:49;;;;;;;7.03;6.53;;;8.30;99.90;;;;;;5054475;28;20201;-66
2022/12/25 01:43:30;;;;;;;11.33;7.10;;;8.30;99.90;;;;;;5048126;28;20178;-66
2022/12/25 01:45:56;;;;;;;8.90;8.00;;;8.30;99.90;;;;;;4990365;28;20187;-66
2022/12/25 01:48:29;;;;;;;10.50;7.77;;;8.30;99.90;;;;;;4972813;28;20227;-66
2022/12/25 01:50:58;;;;;;;7.60;7.00;;;8.30;99.90;;;;;;4972315;28;20178;-66
2022/12/25 01:53:25;;;;;;;10.53;7.27;;;8.30;99.90;;;;;;4972899;28;20467;-65
2022/12/25 01:55:56;;;;;;;13.63;6.90;;;8.30;99.90;;;;;;4972658;28;20716;-65
2022/12/25 01:58:22;;;;;;;12.53;8.23;;;8.30;99.90;;;;;;4971447;28;20622;-66
2022/12/25 02:00:49;;;;;;;8.80;8.07;;;8.30;99.90;;;;;;4972264;28;20539;-66
2022/12/25 02:03:14;;;;;;;11.10;8.30;;;8.30;99.90;;;;;;4972831;28;20174;-66
2022/12/25 02:05:40;;;;;;;9.43;7.83;;;8.30;99.90;;;;;;4972140;28;20243;-66
2022/12/25 02:08:11;;;;;;;13.80;7.60;;;8.30;99.90;;;;;;4972742;28;20185;-66
2022/12/25 02:10:38;;;;;;;8.33;7.50;;;8.30;99.90;;;;;;4972185;28;20181;-66
2022/12/25 02:13:05;;;;;;;8.43;7.80;;;8.30;99.90;;;;;;4972425;28;20267;-66
2022/12/25 02:15:49;;;;;;;9.13;8.33;;;8.30;99.90;;;;;;5021986;28;20690;-66
2022/12/25 02:18:30;;;;;;;10.00;7.80;;;8.30;99.90;;;;;;5054340;28;20663;-66
2022/12/25 02:21:20;;;;;;;8.57;7.77;;;8.30;99.90;;;;;;5052758;28;20518;-66
2022/12/25 02:24:22;;;;;;;8.37;7.50;;;8.30;99.90;;;;;;5054072;28;20222;-66
2022/12/25 02:26:50;;;;;;;7.87;6.90;;;8.30;99.90;;;;;;5053976;28;20186;-66
2022/12/25 02:29:34;;;;;;;11.43;7.27;;;8.40;99.90;;;;;;5054006;28;20178;-66
2022/12/25 02:32:31;;;;;;;9.13;7.67;;;8.30;99.90;;;;;;5054020;28;20676;-66
2022/12/25 02:37:45;;;;;;;8.07;7.23;;;9.30;99.90;;;;;;5032750;28;20276;-65
2022/12/25 02:40:31;;;;;;;9.83;6.83;;;8.20;99.90;;;;;;5033077;28;20267;-65
2022/12/25 03:08:36;;;;;;;11.73;7.33;;;8.50;99.90;;;;;;5033563;28;20186;-63
2022/12/25 03:16:52;;;;;;;9.17;8.27;;;8.60;99.90;;;;;;5031222;28;20202;-63
2022/12/25 03:27:40;;;;;;;7.70;7.00;;;8.70;99.90;;;;;;5033367;28;20267;-62
2022/12/25 03:33:04;;;;;;;9.73;6.67;;;8.70;99.90;;;;;;5032726;28;20214;-63
2022/12/25 03:35:43;;;;;;;11.53;6.83;;;8.70;99.90;;;;;;5033032;28;20290;-63
2022/12/25 04:36:20;;;;;;;6.53;6.03;;;9.00;99.90;;;;;;5031901;28;20286;-63
2022/12/25 04:38:46;;;;;;;7.37;6.67;;;9.00;99.90;;;;;;5031663;28;20194;-63
2022/12/25 04:41:13;;;;;;;8.07;6.20;;;9.00;99.90;;;;;;5031492;28;20629;-62
2022/12/25 04:43:38;;;;;;;8.03;7.37;;;9.00;99.90;;;;;;5031210;28;20175;-63
2022/12/25 04:46:05;;;;;;;8.30;6.70;;;9.00;99.90;;;;;;5031852;28;20163;-63
2022/12/25 04:48:34;;;;;;;12.90;7.20;;;9.00;99.90;;;;;;5031720;28;20167;-63
2022/12/25 04:51:16;;;;;;;9.47;6.60;;;8.90;99.90;;;;;;5022809;28;20691;-62
2022/12/25 04:53:42;;;;;;;8.33;6.70;;;8.90;99.90;;;;;;5011838;28;20214;-62
2022/12/25 04:56:08;;;;;;;9.20;7.13;;;8.80;99.90;;;;;;5011914;28;20168;-62
2022/12/25 04:58:34;;;;;;;7.53;6.47;;;8.70;99.90;;;;;;5011822;28;20618;-62
2022/12/25 05:01:01;;;;;;;7.83;7.00;;;8.70;99.90;;;;;;5027251;28;20179;-62
2022/12/25 05:03:27;;;;;;;10.57;7.23;;;8.60;99.90;;;;;;5031714;28;20168;-63
2022/12/25 05:05:53;;;;;;;8.37;7.17;;;8.50;99.90;;;;;;5031303;28;20195;-62
2022/12/25 05:08:18;;;;;;;7.23;6.53;;;8.50;99.90;;;;;;5031633;28;20174;-62
2022/12/25 05:10:44;;;;;;;14.37;7.77;;;8.50;99.90;;;;;;5031138;28;20683;-62
2022/12/25 05:13:10;;;;;;;15.57;6.60;;;8.40;99.90;;;;;;5031519;28;20572;-63
2022/12/25 05:15:38;;;;;;;12.30;6.77;;;8.40;99.90;;;;;;5031323;28;20194;-63
2022/12/25 05:18:04;;;;;;;13.17;7.17;;;8.40;99.90;;;;;;5031469;28;20167;-63
2022/12/25 05:20:30;;;;;;;6.40;5.90;;;8.40;99.90;;;;;;5031236;28;20171;-63
2022/12/25 05:22:55;;;;;;;6.13;5.73;;;8.40;99.90;;;;;;5029137;28;20274;-63
2022/12/25 05:25:21;;;;;;;8.37;6.70;;;8.40;99.90;;;;;;5031404;28;20223;-63
2022/12/25 05:27:46;;;;;;;13.87;7.00;;;8.40;99.90;;;;;;5031233;28;20168;-62
2022/12/25 05:30:12;;;;;;;6.23;5.83;;;8.40;99.90;;;;;;5030954;28;20545;-62
2022/12/25 05:32:38;;;;;;;10.13;6.10;;;8.40;99.90;;;;;;5030962;28;20206;-63
2022/12/25 05:35:04;;;;;;;6.37;5.87;;;8.40;99.90;;;;;;5031060;28;20191;-63
2022/12/25 05:37:29;;;;;;;7.40;6.90;;;8.40;99.90;;;;;;5031212;28;20195;-62
2022/12/25 05:39:55;;;;;;;7.57;6.97;;;8.30;99.90;;;;;;5030905;28;20620;-63
2022/12/25 05:42:21;;;;;;;7.13;6.47;;;8.40;99.90;;;;;;5031292;28;20230;-62
2022/12/25 05:44:46;;;;;;;11.10;7.00;;;8.30;99.90;;;;;;5030857;28;20214;-62
2022/12/25 05:47:12;;;;;;;11.30;7.47;;;8.40;99.90;;;;;;5031102;28;20255;-63
2022/12/25 05:49:38;;;;;;;10.53;6.33;;;8.40;99.90;;;;;;5030733;28;20176;-62
2022/12/25 05:52:03;;;;;;;7.43;6.73;;;8.50;99.90;;;;;;5031002;28;20306;-63
2022/12/25 05:54:29;;;;;;;8.27;7.00;;;8.50;99.90;;;;;;5032579;28;20191;-62
2022/12/25 05:56:54;;;;;;;7.13;6.53;;;8.60;99.90;;;;;;5034857;28;20182;-62
2022/12/25 05:59:20;;;;;;;7.27;6.77;;;8.60;99.90;;;;;;5032248;28;20175;-62
2022/12/25 06:01:45;;;;;;;7.57;6.43;;;8.70;99.90;;;;;;5034571;28;20179;-63
2022/12/25 06:04:11;;;;;;;8.73;7.20;;;8.80;99.90;;;;;;5034639;28;20195;-63
2022/12/25 06:06:36;;;;;;;7.90;6.10;;;8.80;99.90;;;;;;5034554;28;20171;-63
2022/12/25 06:09:02;;;;;;;5.90;5.40;;;8.80;99.90;;;;;;5034552;28;20215;-63
2022/12/25 06:11:28;;;;;;;12.57;6.20;;;8.70;99.90;;;;;;5034339;28;20203;-62
2022/12/25 06:13:53;;;;;;;6.10;5.80;;;8.70;99.90;;;;;;5034159;28;20182;-62
2022/12/25 06:16:19;;;;;;;6.00;5.60;;;8.80;99.90;;;;;;5034461;28;20262;-63
2022/12/25 06:18:47;;;;;;;7.37;6.40;;;8.70;99.90;;;;;;5034259;28;20171;-62
2022/12/25 06:21:14;;;;;;;7.43;5.57;;;8.70;99.90;;;;;;5034070;28;20176;-62
2022/12/25 06:23:40;;;;;;;6.90;6.13;;;8.80;99.90;;;;;;5034382;28;20171;-62
2022/12/25 06:26:09;;;;;;;10.40;7.70;;;8.80;99.90;;;;;;5034400;28;20171;-61
2022/12/25 06:28:35;;;;;;;6.87;6.37;;;8.90;99.90;;;;;;5033887;28;20264;-63
2022/12/25 06:31:09;;;;;;;9.77;6.70;;;8.80;99.90;;;;;;5015918;28;20219;-62
2022/12/25 06:33:35;;;;;;;6.33;5.83;;;8.90;99.90;;;;;;5014282;28;20247;-62
2022/12/25 06:36:10;;;;;;;7.13;6.30;;;8.90;99.90;;;;;;5014290;28;20208;-62
2022/12/25 06:38:36;;;;;;;11.77;6.80;;;8.90;99.90;;;;;;5014222;28;20238;-63
2022/12/25 06:41:10;;;;;;;7.13;6.60;;;8.90;99.90;;;;;;5013896;28;20175;-62
2022/12/25 06:43:37;;;;;;;7.30;6.70;;;9.00;99.90;;;;;;5014303;28;20172;-63
2022/12/25 06:46:08;;;;;;;6.30;5.90;;;9.00;99.90;;;;;;5014217;28;20172;-62
2022/12/25 06:48:35;;;;;;;8.17;7.20;;;9.00;99.90;;;;;;5014287;28;20195;-62
2022/12/25 06:51:01;;;;;;;8.63;7.13;;;9.00;99.90;;;;;;5013573;28;20188;-62
2022/12/25 06:53:27;;;;;;;7.70;6.37;;;9.00;99.90;;;;;;5014160;28;20177;-62
2022/12/25 06:55:53;;;;;;;7.40;6.53;;;9.00;99.90;;;;;;5013851;28;20200;-62
2022/12/25 06:58:19;;;;;;;8.47;7.47;;;9.00;99.90;;;;;;5013927;28;20229;-62
2022/12/25 07:00:44;;;;;;;9.57;7.23;;;9.00;99.90;;;;;;5015074;28;20352;-62
2022/12/25 07:03:16;;;;;;;10.97;8.10;;;9.00;99.90;;;;;;5033564;28;20180;-62
2022/12/25 07:05:43;;;;;;;7.70;6.80;;;9.10;99.90;;;;;;5032917;28;20199;-62
2022/12/25 07:08:09;;;;;;;6.57;6.07;;;9.10;99.90;;;;;;5033826;28;20176;-62
2022/12/25 07:10:34;;;;;;;7.27;6.70;;;9.20;99.90;;;;;;5033024;28;20522;-62
2022/12/25 07:13:00;;;;;;;8.63;7.13;;;9.20;99.90;;;;;;5033314;28;20207;-63
2022/12/25 07:15:25;;;;;;;7.03;6.47;;;9.20;99.90;;;;;;5033368;28;20202;-63
2022/12/25 07:17:51;;;;;;;7.07;6.40;;;9.20;99.90;;;;;;5033326;28;20309;-62
2022/12/25 07:20:17;;;;;;;7.83;6.50;;;9.20;99.90;;;;;;5033462;28;20180;-63
2022/12/25 07:22:42;;;;;;;7.97;7.37;;;9.30;99.90;;;;;;5033113;28;20179;-62
2022/12/25 07:25:08;;;;;;;11.17;7.30;;;9.30;99.90;;;;;;5033369;28;20198;-62
2022/12/25 07:27:33;;;;;;;7.47;6.77;;;9.30;99.90;;;;;;5033181;28;20176;-62
2022/12/25 07:29:59;;;;;;;9.63;7.07;;;9.40;99.90;;;;;;5032906;28;20238;-62
2022/12/25 07:32:25;;;;;;;14.07;6.67;;;9.40;99.90;;;;;;5029993;28;20203;-62
2022/12/25 07:34:50;;;;;;;7.03;6.50;;;9.40;99.90;;;;;;5032745;28;21076;-63
2022/12/25 07:37:16;;;;;;;7.80;7.27;;;9.40;99.90;;;;;;5032845;28;20237;-63
2022/12/25 07:39:41;;;;;;;7.37;6.77;;;9.40;99.90;;;;;;5032527;28;20179;-63
2022/12/25 07:42:07;;;;;;;11.73;7.63;;;9.30;99.90;;;;;;5032752;28;20683;-63
2022/12/25 07:44:32;;;;;;;9.97;7.10;;;9.30;99.90;;;;;;5032691;28;20200;-62
2022/12/25 07:46:58;;;;;;;10.60;6.83;;;9.30;99.90;;;;;;5032882;28;20202;-63
2022/12/25 07:49:23;;;;;;;7.30;6.57;;;9.40;99.90;;;;;;5032518;28;20176;-62
2022/12/25 07:51:49;;;;;;;7.40;6.70;;;9.40;99.90;;;;;;5032549;28;20555;-62
2022/12/25 07:54:15;;;;;;;16.17;6.73;;;9.40;99.90;;;;;;5032696;28;20236;-62
2022/12/25 07:56:40;;;;;;;7.00;6.50;;;9.40;99.90;;;;;;5032386;28;20171;-62
2022/12/25 07:59:06;;;;;;;9.17;6.97;;;9.40;99.90;;;;;;5031407;28;20234;-62
2022/12/25 08:01:31;;;;;;;11.10;7.33;;;9.40;99.90;;;;;;5032454;28;20179;-63
2022/12/25 08:03:59;;;;;;;10.00;6.93;;;9.40;99.90;;;;;;5021874;28;20350;-62
2022/12/25 08:06:29;;;;;;;8.03;7.00;;;9.40;99.90;;;;;;5012864;28;20552;-62
2022/12/25 08:09:04;;;;;;;7.37;6.67;;;9.50;99.90;;;;;;5012523;28;20231;-63
2022/12/25 08:11:30;;;;;;;7.70;6.90;;;9.50;99.90;;;;;;5012566;28;20600;-62
2022/12/25 08:13:56;;;;;;;7.73;6.73;;;9.60;99.90;;;;;;5011091;28;20210;-62
2022/12/25 08:16:21;;;;;;;7.13;6.53;;;9.60;99.90;;;;;;5012852;28;20180;-63
2022/12/25 08:18:47;;;;;;;15.93;7.13;;;9.60;99.90;;;;;;5011555;28;20211;-62
2022/12/25 08:21:14;;;;;;;13.67;6.80;;;9.60;99.90;;;;;;5012166;28;20234;-62
2022/12/25 08:23:42;;;;;;;8.23;7.53;;;9.60;99.90;;;;;;5012103;28;20183;-62
2022/12/25 08:26:11;;;;;;;7.50;6.73;;;9.60;99.90;;;;;;5011273;28;20230;-62
2022/12/25 08:28:37;;;;;;;8.10;7.30;;;9.60;99.90;;;;;;5012112;28;20676;-62
2022/12/25 08:31:13;;;;;;;7.37;6.77;;;9.60;99.90;;;;;;5012039;28;20168;-62
2022/12/25 08:33:39;;;;;;;7.03;6.43;;;9.60;99.90;;;;;;5012060;28;20176;-62
2022/12/25 08:36:07;;;;;;;10.20;6.87;;;9.60;99.90;;;;;;5080752;22;20223;-64
2022/12/25 08:38:33;;;;;;;6.30;5.90;;;9.60;99.90;;;;;;5112288;28;20214;-64
2022/12/25 08:40:58;;;;;;;7.33;6.73;;;9.60;99.90;;;;;;5111722;28;20172;-64
2022/12/25 08:43:24;;;;;;;6.97;6.47;;;9.70;99.90;;;;;;5094021;28;20169;-63
2022/12/25 08:45:50;;;;;;;14.70;6.50;;;9.70;99.90;;;;;;5087268;28;20230;-64
2022/12/25 08:48:15;;;;;;;11.47;7.23;;;9.70;99.90;;;;;;5071617;28;20577;-64
2022/12/25 08:50:51;;;;;;;7.30;6.60;;;9.70;99.90;;;;;;5071098;28;20681;-64
2022/12/25 08:53:17;;;;;;;10.23;6.83;;;9.70;99.90;;;;;;5071485;28;20682;-64
2022/12/25 08:55:43;;;;;;;8.33;6.50;;;9.80;99.90;;;;;;5071215;28;20194;-64
2022/12/25 08:58:09;;;;;;;7.67;7.00;;;9.80;99.90;;;;;;5070805;28;20656;-64
2022/12/25 09:00:35;;;;;;;7.00;6.40;;;9.80;99.90;;;;;;5071143;28;20178;-64
2022/12/25 09:03:01;;;;;;;8.07;6.70;;;9.80;99.90;;;;;;5071558;28;20181;-64
2022/12/25 09:05:27;;;;;;;6.97;6.30;;;9.90;99.90;;;;;;5070824;28;20658;-64
2022/12/25 09:07:53;;;;;;;10.40;7.00;;;9.90;99.90;;;;;;5092035;28;20173;-65
2022/12/25 09:10:18;;;;;;;7.93;6.80;;;9.90;99.90;;;;;;5091482;28;20185;-65
2022/12/25 09:12:44;;;;;;;7.07;6.10;;;9.90;99.90;;;;;;5091533;28;20201;-67
2022/12/25 09:15:10;;;;;;;7.57;5.80;;;10.00;99.90;;;;;;5081047;28;20201;-64
2022/12/25 09:17:35;;;;;;;9.07;6.60;;;10.00;99.90;;;;;;5071181;28;20562;-65
2022/12/25 09:20:01;;;;;;;7.23;6.63;;;10.00;99.90;;;;;;5070970;28;20231;-65
2022/12/25 09:22:26;;;;;;;8.30;7.50;;;10.00;99.90;;;;;;5053645;28;20662;-66
2022/12/25 09:24:52;;;;;;;9.37;8.47;;;10.00;99.90;;;;;;5071198;28;20249;-66
2022/12/25 09:27:18;;;;;;;8.73;7.83;;;10.00;99.90;;;;;;5071389;28;20733;-65
2022/12/25 09:29:43;;;;;;;10.30;9.13;;;10.00;99.90;;;;;;5073286;28;20244;-65
2022/12/25 09:32:09;;;;;;;6.90;6.40;;;10.00;99.90;;;;;;5075430;28;20202;-66
2022/12/25 09:34:34;;;;;;;7.27;6.50;;;10.00;99.90;;;;;;5057294;28;20170;-66
2022/12/25 09:37:01;;;;;;;14.50;6.77;;;10.00;99.90;;;;;;5055008;28;20721;-66
2022/12/25 09:39:27;;;;;;;6.40;5.80;;;10.00;99.90;;;;;;5074779;28;20169;-66
2022/12/25 09:42:00;;;;;;;5.70;5.30;;;10.00;99.90;;;;;;5075029;28;20174;-66
2022/12/25 09:44:31;;;;;;;6.07;5.67;;;10.00;99.90;;;;;;5075028;28;20206;-66
2022/12/25 09:47:09;;;;;;;6.57;6.07;;;10.00;99.90;;;;;;5074690;28;20209;-66
2022/12/25 09:49:41;;;;;;;7.87;6.00;;;10.00;99.90;;;;;;5075231;28;20177;-66
2022/12/25 09:52:13;;;;;;;7.67;6.20;;;9.90;99.90;;;;;;5084398;28;20521;-65
2022/12/25 09:54:58;;;;;;;6.33;5.80;;;9.90;99.90;;;;;;5088160;28;20176;-66
2022/12/25 09:57:24;;;;;;;6.73;6.23;;;9.90;99.90;;;;;;5074458;28;20201;-66
2022/12/25 09:59:52;;;;;;;8.37;6.30;;;9.80;99.90;;;;;;5073659;28;20178;-66
2022/12/25 10:02:34;;;;;;;8.27;6.37;;;9.80;99.90;;;;;;5076205;28;20167;-67
2022/12/25 10:05:18;;;;;;;7.73;6.27;;;9.80;99.90;;;;;;5076594;28;20185;-67
2022/12/25 10:07:50;;;;;;;5.87;5.40;;;9.80;99.90;;;;;;5094439;28;20180;-66
2022/12/25 10:10:45;;;;;;;8.37;6.30;;;9.80;99.90;;;;;;5094438;28;20249;-66
2022/12/25 10:13:10;;;;;;;7.03;6.53;;;9.80;99.90;;;;;;5093538;28;20295;-66
2022/12/25 10:15:57;;;;;;;7.90;5.87;;;9.90;99.90;;;;;;5076266;28;20252;-66
2022/12/25 10:18:52;;;;;;;6.70;6.10;;;9.90;99.90;;;;;;5074531;28;20171;-67
2022/12/25 10:21:19;;;;;;;6.67;6.17;;;9.90;99.90;;;;;;5077749;28;20165;-66
2022/12/25 10:23:53;;;;;;;6.70;5.40;;;9.90;99.90;;;;;;5094547;28;20173;-66
2022/12/25 10:26:23;;;;;;;6.50;5.90;;;9.90;99.90;;;;;;5094057;28;20193;-67
2022/12/25 10:29:02;;;;;;;5.57;5.17;;;9.90;99.90;;;;;;5094349;28;20513;-67
2022/12/25 10:31:32;;;;;;;6.67;6.17;;;9.90;99.90;;;;;;5093706;28;20244;-67
2022/12/25 10:33:58;;;;;;;6.20;5.70;;;10.00;99.90;;;;;;5094339;28;20174;-67
2022/12/25 10:36:26;;;;;;;8.37;6.00;;;10.00;99.90;;;;;;5094252;28;20281;-67
2022/12/25 10:38:52;;;;;;;8.27;5.37;;;10.00;99.90;;;;;;5075645;28;20174;-67
2022/12/25 10:41:36;;;;;;;8.37;6.23;;;10.00;99.90;;;;;;5092763;28;20669;-67
2022/12/25 10:44:13;;;;;;;6.40;5.90;;;10.00;99.90;;;;;;5093915;28;20248;-66
2022/12/25 10:46:39;;;;;;;6.23;5.63;;;10.00;99.90;;;;;;5088298;28;20217;-66
2022/12/25 10:49:13;;;;;;;6.63;6.07;;;10.00;99.90;;;;;;5085987;28;20503;-67
2022/12/25 10:51:39;;;;;;;6.17;5.77;;;10.00;99.90;;;;;;5072307;28;20233;-66
2022/12/25 10:54:22;;;;;;;6.57;6.17;;;10.10;99.90;;;;;;5087747;28;20200;-67
2022/12/25 10:56:59;;;;;;;7.60;6.90;;;10.00;99.90;;;;;;5093600;28;20185;-67
2022/12/25 10:59:27;;;;;;;7.03;6.40;;;10.00;99.90;;;;;;5093460;28;20170;-66
2022/12/25 11:01:54;;;;;;;7.07;6.17;;;10.00;99.90;;;;;;5093736;28;20520;-66
2022/12/25 11:04:33;;;;;;;5.90;5.50;;;10.00;99.90;;;;;;5093475;28;20234;-66
2022/12/25 11:07:12;;;;;;;6.80;6.30;;;10.00;99.90;;;;;;5093328;28;20196;-66
2022/12/25 11:09:38;;;;;;;8.43;6.43;;;10.00;99.90;;;;;;5092409;28;20176;-66
2022/12/25 11:12:05;;;;;;;6.03;5.53;;;10.00;99.90;;;;;;5093286;28;20209;-66
2022/12/25 11:14:30;;;;;;;7.80;6.63;;;10.10;99.90;;;;;;5075426;28;20177;-67
2022/12/25 11:17:07;;;;;;;6.97;6.47;;;10.10;99.90;;;;;;5074974;28;20700;-67
2022/12/25 11:19:33;;;;;;;7.37;6.60;;;10.10;99.90;;;;;;5072844;28;20662;-67
2022/12/25 11:22:01;;;;;;;7.37;6.63;;;10.20;99.90;;;;;;5073063;28;20178;-66
2022/12/25 11:24:29;;;;;;;6.47;5.90;;;10.20;99.90;;;;;;5093142;28;20178;-67
2022/12/25 11:26:58;;;;;;;6.60;6.03;;;10.20;99.90;;;;;;5091660;28;20590;-67
2022/12/25 11:29:26;;;;;;;8.27;7.57;;;10.30;99.90;;;;;;5092871;28;20444;-66
2022/12/25 11:31:56;;;;;;;8.00;7.20;;;10.40;99.90;;;;;;5092690;28;20291;-67
2022/12/25 11:34:39;;;;;;;13.57;7.40;;;10.40;99.90;;;;;;5075208;28;20634;-67
2022/12/25 11:37:13;;;;;;;7.53;6.87;;;10.40;99.90;;;;;;5092603;28;20205;-66
2022/12/25 11:39:40;;;;;;;7.97;6.90;;;10.50;99.90;;;;;;5079042;28;20170;-67
2022/12/25 11:42:27;;;;;;;7.47;6.77;;;10.50;99.90;;;;;;5089075;28;20185;-67
2022/12/25 11:45:00;;;;;;;7.73;7.03;;;10.50;99.90;;;;;;5076875;28;20322;-67
2022/12/25 11:47:47;;;;;;;6.83;6.23;;;10.50;99.90;;;;;;5092973;28;20216;-66
2022/12/25 11:50:36;;;;;;;6.70;6.13;;;10.40;99.90;;;;;;5092467;28;20189;-66
2022/12/25 11:53:06;;;;;;;8.10;7.47;;;10.40;99.90;;;;;;5092526;28;20239;-65
2022/12/25 11:56:05;;;;;;;7.23;6.50;;;10.40;99.90;;;;;;5092538;28;20181;-66
2022/12/25 11:58:34;;;;;;;6.90;6.33;;;10.40;99.90;;;;;;5073446;28;20185;-67
2022/12/25 12:01:05;;;;;;;7.77;7.17;;;10.40;99.90;;;;;;5092523;28;20208;-66
2022/12/25 12:03:40;;;;;;;7.33;6.63;;;10.40;99.90;;;;;;5091889;28;20195;-67
2022/12/25 12:06:50;;;;;;;11.67;6.43;;;10.40;99.90;;;;;;5074391;28;20224;-66
2022/12/25 12:09:28;;;;;;;6.20;5.60;;;10.40;99.90;;;;;;5087048;28;20620;-65
2022/12/25 12:12:08;;;;;;;7.37;6.63;;;10.50;99.90;;;;;;5092428;28;20193;-66
2022/12/25 12:14:57;;;;;;;7.63;6.90;;;10.50;99.90;;;;;;5090221;28;20244;-67
2022/12/25 12:17:23;;;;;;;7.50;6.80;;;10.50;99.90;;;;;;5071928;28;20616;-66
2022/12/25 12:19:49;;;;;;;7.53;6.83;;;10.50;99.90;;;;;;5080800;28;20238;-66
2022/12/25 12:22:21;;;;;;;6.83;6.20;;;10.50;99.90;;;;;;5092219;28;20192;-66
2022/12/25 12:25:03;;;;;;;6.23;5.83;;;10.40;99.90;;;;;;5091837;28;20196;-66
2022/12/25 12:27:35;;;;;;;6.97;6.07;;;10.40;99.90;;;;;;5092182;28;20215;-66
2022/12/25 12:30:01;;;;;;;6.43;5.83;;;10.40;99.90;;;;;;5091365;28;20186;-66
2022/12/25 12:32:32;;;;;;;8.27;6.60;;;10.30;99.90;;;;;;5092040;28;20197;-66
2022/12/25 12:34:59;;;;;;;8.97;6.50;;;10.30;99.90;;;;;;5091560;28;20177;-67
2022/12/25 12:37:30;;;;;;;7.13;6.47;;;10.30;99.90;;;;;;5091688;28;20230;-64
2022/12/25 12:39:56;;;;;;;8.47;7.70;;;10.40;99.90;;;;;;5091219;28;20169;-65
2022/12/25 12:42:29;;;;;;;7.87;7.17;;;10.40;99.90;;;;;;5091747;28;20176;-66
2022/12/25 12:45:05;;;;;;;8.90;7.47;;;10.50;99.90;;;;;;5091663;28;20264;-66
2022/12/25 12:47:39;;;;;;;7.40;6.80;;;10.50;99.90;;;;;;5091529;28;20674;-67
2022/12/25 12:50:06;;;;;;;8.40;7.43;;;10.50;99.90;;;;;;5073546;28;20172;-66
2022/12/25 12:52:39;;;;;;;9.10;7.07;;;10.50;99.90;;;;;;5073245;28;20253;-67
2022/12/25 12:55:12;;;;;;;7.23;6.63;;;10.60;99.90;;;;;;5091688;28;20165;-66
2022/12/25 12:57:39;;;;;;;8.37;7.57;;;10.70;99.90;;;;;;5091200;28;20792;-66
2022/12/25 13:00:08;;;;;;;10.63;7.57;;;10.70;99.90;;;;;;5091408;28;20248;-66
2022/12/25 13:02:42;;;;;;;10.20;7.07;;;10.80;99.90;;;;;;5077527;28;20181;-67
2022/12/25 13:05:42;;;;;;;8.77;7.87;;;10.80;99.90;;;;;;5091046;28;20564;-66
2022/12/25 13:08:42;;;;;;;10.43;8.03;;;10.80;99.90;;;;;;5091530;28;20181;-67
2022/12/25 13:11:23;;;;;;;19.00;8.33;;;10.80;99.90;;;;;;5091129;28;20189;-67
2022/12/25 13:13:52;;;;;;;11.03;8.07;;;10.80;99.90;;;;;;5091154;28;20201;-66
2022/12/25 13:16:24;;;;;;;7.90;6.97;;;10.80;99.90;;;;;;5091640;28;20181;-66
2022/12/25 13:18:54;;;;;;;10.57;7.83;;;10.80;99.90;;;;;;5091100;28;20215;-67
2022/12/25 13:21:26;;;;;;;8.40;7.70;;;10.80;99.90;;;;;;5091242;28;20379;-66
2022/12/25 13:23:56;;;;;;;7.70;7.10;;;10.80;99.90;;;;;;5072784;28;20169;-66
2022/12/25 13:26:22;;;;;;;7.20;6.50;;;10.80;99.90;;;;;;5091421;28;20207;-66
2022/12/25 13:28:48;;;;;;;6.83;6.23;;;10.70;99.90;;;;;;5091011;28;20219;-66
2022/12/25 13:31:23;;;;;;;8.47;7.47;;;10.70;99.90;;;;;;5090948;28;20166;-66
2022/12/25 13:33:59;;;;;;;7.80;7.10;;;10.70;99.90;;;;;;5088134;28;20177;-66
2022/12/25 13:36:27;;;;;;;10.17;7.77;;;10.70;99.90;;;;;;5091159;28;20205;-67
2022/12/25 13:38:56;;;;;;;7.10;6.60;;;10.70;99.90;;;;;;5090792;28;20213;-67
2022/12/25 13:44:22;;;;;;;12.20;7.07;;;10.70;99.90;;;;;;5071210;28;20189;-66
2022/12/25 13:46:48;;;;;;;7.33;6.73;;;10.80;99.90;;;;;;5072520;28;20190;-66
2022/12/25 13:49:16;;;;;;;8.73;7.57;;;10.70;99.90;;;;;;5090448;28;20537;-67
2022/12/25 13:51:42;;;;;;;7.23;6.63;;;10.80;99.90;;;;;;5090116;28;20284;-67
2022/12/25 13:54:10;;;;;;;10.73;7.60;;;10.70;99.90;;;;;;5090840;28;20261;-67
2022/12/25 13:56:36;;;;;;;8.27;7.60;;;10.80;99.90;;;;;;5090266;28;20190;-66
2022/12/25 13:59:03;;;;;;;7.83;6.93;;;10.80;99.90;;;;;;5090906;28;20597;-67
2022/12/25 14:01:29;;;;;;;10.67;8.20;;;10.80;99.90;;;;;;5090831;28;20173;-67
2022/12/25 14:03:55;;;;;;;8.47;7.13;;;10.80;99.90;;;;;;5090587;28;20260;-66
2022/12/25 14:06:29;;;;;;;8.00;7.20;;;10.80;99.90;;;;;;5070693;28;20281;-68
2022/12/25 14:08:57;;;;;;;9.60;7.50;;;10.90;99.90;;;;;;5090839;28;20197;-67
2022/12/25 14:11:26;;;;;;;9.40;7.70;;;10.90;99.90;;;;;;5090270;28;20170;-67
2022/12/25 14:14:01;;;;;;;8.30;7.50;;;10.80;99.90;;;;;;5090684;28;20191;-67
2022/12/25 14:16:27;;;;;;;8.77;7.90;;;10.80;99.90;;;;;;5092052;28;20255;-66
2022/12/25 14:19:02;;;;;;;7.70;6.90;;;10.80;99.90;;;;;;5094309;28;20197;-67
2022/12/25 14:21:33;;;;;;;7.83;7.03;;;10.80;99.90;;;;;;5075977;28;20537;-65
2022/12/25 14:23:59;;;;;;;7.90;7.10;;;10.90;99.90;;;;;;5094356;28;20524;-65
2022/12/25 14:26:32;;;;;;;9.43;8.47;;;10.90;99.90;;;;;;5076009;28;20278;-65
2022/12/25 14:29:01;;;;;;;11.67;7.10;;;10.90;99.90;;;;;;5075987;28;20181;-65
2022/12/25 14:31:28;;;;;;;8.60;7.80;;;10.90;99.90;;;;;;5075519;28;20499;-65
2022/12/25 14:33:54;;;;;;;9.63;8.07;;;10.90;99.90;;;;;;5094102;28;20173;-65
2022/12/25 14:36:20;;;;;;;8.77;7.43;;;10.90;99.90;;;;;;5094548;28;20205;-65
2022/12/25 14:38:59;;;;;;;7.37;6.77;;;10.90;99.90;;;;;;5094103;28;20230;-65
2022/12/25 14:41:38;;;;;;;8.50;7.60;;;10.90;99.90;;;;;;5057762;28;20170;-65
2022/12/25 14:44:23;;;;;;;8.37;7.73;;;10.90;99.90;;;;;;5094113;28;20169;-64
2022/12/25 14:46:49;;;;;;;14.53;9.30;;;10.90;99.90;;;;;;5093491;28;20658;-64
2022/12/25 14:49:23;;;;;;;11.73;9.67;;;10.80;99.90;;;;;;5093803;28;20170;-64
2022/12/25 14:51:49;;;;;;;13.03;9.30;;;10.80;99.90;;;;;;5075199;28;20273;-64
2022/12/25 14:54:19;;;;;;;13.87;9.20;;;10.80;99.90;;;;;;5093868;28;20223;-64